Swiss A21N at Zurich on Sep 17th 2022, cargo smoke indication

Last Update: September 18, 2022 / 10:41:05 GMT/Zulu time

Bookmark this article
Incident Facts

Date of incident
Sep 17, 2022

Classification
Incident

Flight number
LX-2119

Departure
Malaga, Spain

Aircraft Registration
HB-JPA

Aircraft Type
Airbus A321-Neo

ICAO Type Designator
A21N

Airport ICAO Code
LSZH

A Swiss International Airlines Airbus A321-200N, registration HB-JPA performing flight LX-2119 from Malaga,SP (Spain) to Zurich (Switzerland), was descending towards Zurich when the crew declared emergency reporting they had a cargo smoke indication and requested emergency services on standby, they requested runway 14 (runway 28 active, winds from 270 degrees at 6 knots) and declined an offer for runway 34. The aircraft landed on runway 14 about 15 minutes later.

On Sep 18th 2022 the airline reported a smoke detector caused the emergency, the aircraft was accompanied to the gate by emergency services. The cause of the smoke detector's activation is not yet known.

The aircraft is still on the ground about 16 hours after landing.

Metars:
LSZH 171950Z 28008KT 9999 VCSH FEW027 BKN055 10/06 Q1020 NOSIG=
LSZH 171920Z 30008KT 9999 -SHRA FEW030 SCT045 BKN060 10/06 Q1019 NOSIG=
LSZH 171850Z 28007KT 9999 BKN067 11/05 Q1019 NOSIG=
LSZH 171820Z 28007KT 9999 BKN065 11/05 Q1018 NOSIG=
LSZH 171750Z 28007KT 9999 FEW035 BKN062 12/05 Q1018 NOSIG=
LSZH 171720Z 27005KT 9999 FEW030 BKN075 12/05 Q1018 NOSIG=
LSZH 171650Z 30007KT 260V320 9999 -SHRA VCSH FEW030 BKN058 11/06 Q1018 NOSIG=
LSZH 171620Z 30009KT 9999 VCSH FEW035 BKN058 12/06 Q1018 NOSIG=
LSZH 171550Z 27010KT 9999 FEW028 SCT068 12/06 Q1017 NOSIG=
LSZH 171520Z 28010KT 9999 VCSH FEW050 SCT079 12/06 Q1017 NOSIG=
LSZH 171450Z 29009KT 9999 VCSH FEW043 SCT053 BKN065 11/06 Q1018 NOSIG=
LSZH 171420Z 29017KT 9999 VCSH FEW026 SCT060 11/05 Q1018 TEMPO SHRA=
Aircraft Registration Data
Registration mark
HB-JPA
Country of Registration
Switzerland
Date of Registration
BecqdAlidqnhedplfb Subscribe to unlock
Certification Basis
Airworthyness Category
Legal Basis
TCDS Ident. No.
Manufacturer
AIRBUS S.A.S.
Aircraft Model / Type
A321-271NX
ICAO Aircraft Type
A21N
Year of Manufacture
Serial Number
Aircraft Address / Mode S Code (HEX)
Max. Operational Passenger Seating Capacity (MOPSC), indicative
Minimum Crew
Maximum Take off Mass (MTOM) [kg]
Engine Count
Engine
Main Owner
Jidhhcciimmbe kqjcibncccinkeAlemfpjccjAdccccb gbkhf A gfihg igAjAgemcdqAhkemj Subscribe to unlock
Main Operator
Gjb jilcfmlmbmghekhpnmbcbhle illiAljpgAcA jeikAelipphfbfbieiceAjmdmkdlij Subscribe to unlock
Incident Facts

Date of incident
Sep 17, 2022

Classification
Incident

Flight number
LX-2119

Departure
Malaga, Spain

Aircraft Registration
HB-JPA

Aircraft Type
Airbus A321-Neo

ICAO Type Designator
A21N

Airport ICAO Code
LSZH

This article is published under license from Avherald.com. © of text by Avherald.com.
Article source

You can read 2 more free articles without a subscription.

Subscribe now and continue reading without any limits!

Are you a subscriber? Login
Subscribe

Read unlimited articles and receive our daily update briefing. Gain better insights into what is happening in commercial aviation safety.

Free newsletter

Want to know more and stay ahead? Get our free weekly newsletter and join 5377 existing subscribers.

By subscribing, you accept our terms and conditions and confirm that you've read our privacy policy.

Send tip

Support AeroInside by sending a small tip amount.

Related articles

Newest articles

Subscribe today

Are you researching aviation incidents? Get access to AeroInside Insights, unlimited read access and receive the daily newsletter.

Pick your plan and subscribe

Partner

Blockaviation logo

A new way to document and demonstrate airworthiness compliance and aircraft value. Find out more.

Virtual Speech logo

ELITE Simulation Solutions is a leading global provider of Flight Simulation Training Devices, IFR training software as well as flight controls and related services. Find out more.

Get updates

Never miss an article from AeroInside. Subscribe to our free weekly newsletter and join 5377 existing subscribers.

By subscribing, you accept our terms and conditions and that you've read our privacy policy.

AeroInside Blog
Popular aircraft
Airbus A320
Boeing 737-800
Boeing 737-800 MAX
Popular airlines
American Airlines
United
Delta
Air Canada
Lufthansa
British Airways